シカゴ/オヘア の空港の天気 - METARとTAF

シカゴ・オヘア国際空港 ( KORD / ORD ) - アメリカ イリノイ州シカゴ
飛行場実況気象(Metar)
観測時間04/21 11:51 CDT (04/21 16:51 UTC)
風向・風速南 6m/s
視程10km以上
天気現象
少しの雲 雲底高度 3660m
全天の8割程度の雲 雲底高度 7620m
気温21.7℃
湿度29%
気圧1016hPa
METARKORD 211651Z 19011KT 10SM FEW120 BKN250 22/03 A3000 RMK AO2 SLP160 T02170028
過去の天気等 Google飛行場航空写真 Wunderground天気予報

過去48時間のMETAR

飛行場予報(TAF)
発表時間: 4/21 09:36 CDT (4/21 14:36 UTC)
予報対象時間: 21日10時 CDT ~ 22日13時 CDT
風向・風速南 6m/s
視程10km以上
全天の4割程度の雲 雲底高度 7620m
22日10時 CDT から
風向・風速南 6m/s 瞬間風速 9m/s
視程10km以上
全天の8割程度の雲 雲底高度 4570m
KORD 211436Z 2115/2218 19011KT P6SM SCT250
FM221500 18012G18KT P6SM BKN150